Terminal Aerodrome Forecast
Issued by NWS

Home | Current Version | Previous Version | Text Only | Print | Product List | Glossary On
Versions: 1 2 3 4 5 6 7 8 9 10 11 12 13 14 15
533
FTUS46 KSEW 250527
TAFBFI
TAF
KBFI 250527Z 2506/2606 VRB03KT P6SM SKC
     FM251200 VRB03KT P6SM FEW024
     FM251800 31006KT P6SM FEW060
     FM260300 VRB03KT P6SM SKC=

USA.gov is the U.S. government's official web portal to all federal, state and local government web resources and services.